Time;durP1;ratioP1;P1;durP2;ratioP2;P2;SDS_P1;SDS_P2;PMS_P1;PMS_P2;Temp;Humidity;BMP_temperature;BMP_pressure;BME280_temperature;BME280_humidity;BME280_pressure;Samples;Min_cycle;Max_cycle;Signal;HPM_P1;HPM_P2
2022/06/02 00:00:14;;;;;;;;;;;11.70;99.90;;;;;;5007081;28;19952;-79
2022/06/02 00:03:04;;;;;;;;;;;11.50;99.90;;;;;;4973657;28;19929;-78
2022/06/02 00:05:33;;;;;;;;;;;11.60;99.20;;;;;;5007138;28;19926;-78
2022/06/02 00:08:19;;;;;;;;;;;11.50;98.80;;;;;;4989919;28;19925;-78
2022/06/02 00:10:49;;;;;;;;;;;11.50;99.30;;;;;;4990040;28;19929;-78
2022/06/02 00:13:22;;;;;;;;;;;11.50;99.70;;;;;;4989515;28;19931;-78
2022/06/02 00:15:54;;;;;;;;;;;11.40;99.60;;;;;;5006586;28;19929;-78
2022/06/02 00:18:51;;;;;;;;;;;11.40;99.90;;;;;;5005851;28;19926;-78
2022/06/02 00:21:35;;;;;;;;;;;12.20;99.90;;;;;;4987487;28;19933;-78
2022/06/02 00:24:12;;;;;;;;;;;11.30;99.90;;;;;;5012134;28;19926;-78
2022/06/02 00:26:54;;;;;;;;;;;11.20;99.90;;;;;;4989575;28;19930;-78
2022/06/02 00:29:33;;;;;;;;;;;11.10;99.90;;;;;;5005263;28;19930;-78
2022/06/02 00:32:11;;;;;;;;;;;11.10;99.90;;;;;;5006615;28;19940;-81
2022/06/02 00:34:43;;;;;;;;;;;11.00;99.90;;;;;;4988990;28;19934;-78
2022/06/02 00:37:11;;;;;;;;;;;11.00;99.90;;;;;;5005746;28;19933;-78
2022/06/02 00:39:40;;;;;;;;;;;11.00;99.90;;;;;;4989589;28;19930;-78
2022/06/02 00:42:14;;;;;;;;;;;11.00;99.90;;;;;;4972584;28;20195;-78
2022/06/02 00:44:57;;;;;;;;;;;11.00;99.90;;;;;;4988503;28;19933;-78
2022/06/02 00:47:39;;;;;;;;;;;12.10;99.90;;;;;;4990143;28;19930;-78
2022/06/02 00:50:06;;;;;;;;;;;11.20;99.90;;;;;;5003990;28;19932;-78
2022/06/02 00:52:56;;;;;;;;;;;10.70;99.90;;;;;;4981176;28;19941;-78
2022/06/02 00:58:44;;;;;;;;;;;10.80;99.90;;;;;;4993409;28;19936;-78
2022/06/02 01:01:13;;;;;;;;;;;10.80;99.90;;;;;;5005695;28;19930;-79
2022/06/02 01:03:48;;;;;;;;;;;10.80;99.90;;;;;;4972584;28;19940;-78
2022/06/02 01:06:23;;;;;;;;;;;10.80;99.90;;;;;;4987582;28;19926;-78
2022/06/02 01:08:54;;;;;;;;;;;10.80;99.90;;;;;;5005194;28;19926;-78
2022/06/02 01:11:37;;;;;;;;;;;10.60;99.90;;;;;;4987190;28;19937;-78
2022/06/02 01:14:06;;;;;;;;;;;10.80;99.90;;;;;;4987648;28;19926;-77
2022/06/02 01:17:02;;;;;;;;;;;10.80;99.90;;;;;;5005138;28;19926;-78
2022/06/02 01:19:59;;;;;;;;;;;10.70;99.90;;;;;;4970560;28;19932;-78
2022/06/02 01:22:27;;;;;;;;;;;10.70;99.90;;;;;;5000932;28;19933;-78
2022/06/02 01:25:04;;;;;;;;;;;10.70;99.90;;;;;;4987757;28;20154;-78
2022/06/02 01:27:42;;;;;;;;;;;10.60;99.90;;;;;;4986786;28;19925;-78
2022/06/02 01:30:29;;;;;;;;;;;10.60;99.90;;;;;;5004874;28;19929;-78
2022/06/02 01:33:03;;;;;;;;;;;10.50;99.90;;;;;;4985328;28;20346;-78
2022/06/02 01:35:34;;;;;;;;;;;10.50;99.90;;;;;;4990968;28;19929;-78
2022/06/02 01:38:03;;;;;;;;;;;10.40;99.90;;;;;;5005388;28;19920;-78
2022/06/02 01:40:41;;;;;;;;;;;10.30;99.90;;;;;;4992458;28;20378;-78
2022/06/02 01:43:13;;;;;;;;;;;10.20;99.90;;;;;;5004554;28;20406;-78
2022/06/02 01:45:41;;;;;;;;;;;10.20;99.90;;;;;;5004839;28;19925;-78
2022/06/02 01:48:15;;;;;;;;;;;10.20;99.90;;;;;;4989888;28;20263;-77
2022/06/02 01:51:07;;;;;;;;;;;10.20;99.90;;;;;;5006415;28;19926;-78
2022/06/02 01:53:44;;;;;;;;;;;10.20;99.90;;;;;;4982045;28;19930;-78
2022/06/02 01:56:21;;;;;;;;;;;10.20;99.90;;;;;;5005692;28;19930;-78
2022/06/02 01:58:50;;;;;;;;;;;10.10;99.90;;;;;;5005152;28;19932;-78
2022/06/02 02:01:38;;;;;;;;;;;10.10;99.90;;;;;;5005187;28;19937;-78
2022/06/02 02:04:16;;;;;;;;;;;10.10;99.90;;;;;;5006970;28;19949;-78
2022/06/02 02:06:52;;;;;;;;;;;10.10;99.90;;;;;;4989147;28;19930;-78
2022/06/02 02:09:30;;;;;;;;;;;10.00;99.90;;;;;;4990323;28;19926;-77
2022/06/02 02:12:01;;;;;;;;;;;9.90;99.90;;;;;;4989931;28;20310;-77
2022/06/02 02:14:35;;;;;;;;;;;9.90;99.90;;;;;;5006541;28;20703;-79
2022/06/02 02:17:16;;;;;;;;;;;9.80;99.90;;;;;;4987324;28;19953;-78
2022/06/02 02:19:44;;;;;;;;;;;9.80;99.90;;;;;;4986284;28;20149;-78
2022/06/02 02:22:30;;;;;;;;;;;9.70;99.90;;;;;;5007315;28;19936;-78
2022/06/02 02:25:03;;;;;;;;;;;9.70;99.90;;;;;;5005880;28;19926;-78
2022/06/02 02:28:02;;;;;;;;;;;9.70;99.90;;;;;;4990456;28;19929;-77
2022/06/02 02:30:27;;;;;;;;;;;9.60;99.90;;;;;;5005131;28;19945;-78
2022/06/02 02:33:07;;;;;;;;;;;9.60;99.90;;;;;;5010902;28;19914;-78
2022/06/02 02:35:53;;;;;;;;;;;9.60;99.90;;;;;;5004685;28;19929;-77
2022/06/02 02:38:30;;;;;;;;;;;8.60;99.90;;;;;;4987746;28;19937;-78
2022/06/02 02:41:02;;;;;;;;;;;9.60;99.90;;;;;;5005705;28;19936;-78
2022/06/02 02:43:59;;;;;;;;;;;9.60;99.90;;;;;;5003431;28;19929;-78
2022/06/02 02:46:41;;;;;;;;;;;9.60;99.90;;;;;;4997752;28;19925;-78
2022/06/02 02:49:33;;;;;;;;;;;8.90;99.90;;;;;;4971662;28;19932;-78
2022/06/02 02:52:17;;;;;;;;;;;9.50;99.90;;;;;;5011024;28;19937;-78
2022/06/02 02:54:56;;;;;;;;;;;9.50;99.90;;;;;;5003943;28;19929;-78
2022/06/02 02:57:26;;;;;;;;;;;9.50;99.90;;;;;;4987419;28;19925;-78
2022/06/02 03:00:19;;;;;;;;;;;9.50;99.90;;;;;;4971877;28;20449;-78
2022/06/02 03:03:08;;;;;;;;;;;9.50;99.90;;;;;;5004126;28;19941;-78
2022/06/02 03:05:39;;;;;;;;;;;9.40;99.90;;;;;;5003612;28;20121;-78
2022/06/02 03:08:15;;;;;;;;;;;9.40;99.90;;;;;;5003880;28;19934;-78
2022/06/02 03:10:44;;;;;;;;;;;9.40;99.90;;;;;;5002633;28;19942;-78
2022/06/02 03:13:27;;;;;;;;;;;9.30;99.90;;;;;;5003584;28;19953;-78
2022/06/02 03:16:02;;;;;;;;;;;9.30;99.90;;;;;;4983985;28;19926;-78
2022/06/02 03:18:49;;;;;;;;;;;9.30;99.90;;;;;;4988454;28;19929;-78
2022/06/02 03:21:24;;;;;;;;;;;9.30;99.90;;;;;;4987670;28;19930;-77
2022/06/02 03:23:51;;;;;;;;;;;9.20;99.90;;;;;;5005705;28;19932;-78
2022/06/02 03:26:35;;;;;;;;;;;9.20;99.90;;;;;;4991876;28;19926;-78
2022/06/02 03:29:10;;;;;;;;;;;9.10;99.90;;;;;;4988216;28;19925;-78
2022/06/02 03:31:44;;;;;;;;;;;8.90;99.90;;;;;;5004558;28;19937;-77
2022/06/02 03:34:26;;;;;;;;;;;9.10;99.90;;;;;;4987332;28;19937;-78
2022/06/02 03:36:53;;;;;;;;;;;9.10;99.90;;;;;;4987186;28;19933;-77
2022/06/02 03:39:29;;;;;;;;;;;9.10;99.90;;;;;;5004402;28;19926;-78
2022/06/02 03:42:06;;;;;;;;;;;9.00;99.90;;;;;;5002948;28;19932;-78
2022/06/02 03:44:46;;;;;;;;;;;9.00;99.90;;;;;;5004146;28;19929;-78
2022/06/02 03:47:17;;;;;;;;;;;9.00;99.90;;;;;;4984059;28;19930;-78
2022/06/02 03:49:48;;;;;;;;;;;9.00;99.90;;;;;;4999503;28;20406;-78
2022/06/02 03:52:18;;;;;;;;;;;9.00;99.90;;;;;;5005024;28;19926;-78
2022/06/02 03:54:51;;;;;;;;;;;9.00;99.90;;;;;;4982898;28;19934;-78
2022/06/02 03:57:18;;;;;;;;;;;9.00;99.90;;;;;;4967597;28;19930;-78
2022/06/02 04:00:07;;;;;;;;;;;8.90;99.90;;;;;;4985732;28;19933;-78
2022/06/02 04:02:41;;;;;;;;;;;8.90;99.90;;;;;;4984858;28;19926;-78
2022/06/02 04:05:23;;;;;;;;;;;8.90;99.90;;;;;;4998717;28;19934;-78
2022/06/02 04:07:57;;;;;;;;;;;8.90;99.90;;;;;;5003713;28;20430;-78
2022/06/02 04:10:37;;;;;;;;;;;8.90;99.90;;;;;;5003926;28;19926;-79
2022/06/02 04:16:16;;;;;;;;;;;9.00;99.90;;;;;;5004201;28;19933;-78
2022/06/02 04:18:58;;;;;;;;;;;8.90;99.90;;;;;;4990590;28;19926;-77
2022/06/02 04:21:55;;;;;;;;;;;8.90;99.90;;;;;;5010002;28;19933;-78
2022/06/02 04:24:26;;;;;;;;;;;8.90;99.90;;;;;;4594559;28;9999800;-79
2022/06/02 04:26:56;;;;;;;;;;;8.90;99.90;;;;;;5004415;28;19933;-77
2022/06/02 04:29:24;;;;;;;;;;;8.90;99.90;;;;;;4990743;28;19930;-78
2022/06/02 04:32:03;;;;;;;;;;;8.90;99.90;;;;;;4989742;28;19925;-78
2022/06/02 04:34:54;;;;;;;;;;;8.90;99.90;;;;;;4990815;28;20057;-78
2022/06/02 04:37:53;;;;;;;;;;;9.00;99.90;;;;;;4996048;28;19930;-78
2022/06/02 04:40:39;;;;;;;;;;;9.00;99.90;;;;;;4990894;28;19930;-77
2022/06/02 04:43:12;;;;;;;;;;;9.00;99.90;;;;;;5007435;28;19941;-77
2022/06/02 04:46:00;;;;;;;;;;;9.00;99.90;;;;;;5006811;28;19930;-77
2022/06/02 04:48:48;;;;;;;;;;;9.00;99.90;;;;;;5007696;28;19932;-78
2022/06/02 04:51:18;;;;;;;;;;;9.10;99.90;;;;;;5004472;28;19926;-78
2022/06/02 04:53:57;;;;;;;;;;;9.20;99.90;;;;;;4987137;28;19937;-78
2022/06/02 04:56:31;;;;;;;;;;;9.20;99.90;;;;;;5006015;28;20008;-78
2022/06/02 04:59:13;;;;;;;;;;;9.30;99.90;;;;;;5004973;28;20162;-78
2022/06/02 05:01:51;;;;;;;;;;;9.40;99.90;;;;;;4987986;28;19926;-78
2022/06/02 05:04:41;;;;;;;;;;;9.50;99.90;;;;;;5004189;28;19933;-78
2022/06/02 05:07:12;;;;;;;;;;;9.50;99.90;;;;;;4925011;28;19926;-78
2022/06/02 05:10:00;;;;;;;;;;;9.60;99.90;;;;;;4985640;28;19934;-78
2022/06/02 05:12:40;;;;;;;;;;;9.70;99.90;;;;;;4991533;28;19914;-78
2022/06/02 05:15:21;;;;;;;;;;;9.80;99.90;;;;;;5001256;28;19926;-77
2022/06/02 05:17:51;;;;;;;;;;;9.80;99.90;;;;;;4985993;28;19940;-78
2022/06/02 05:20:33;;;;;;;;;;;9.90;99.90;;;;;;4987506;28;19936;-78
2022/06/02 05:23:11;;;;;;;;;;;10.00;99.90;;;;;;4993862;28;19925;-78
2022/06/02 05:25:54;;;;;;;;;;;10.10;99.90;;;;;;5006636;28;19926;-78
2022/06/02 05:28:34;;;;;;;;;;;10.20;99.90;;;;;;5024563;28;19937;-78
2022/06/02 05:31:20;;;;;;;;;;;10.20;99.90;;;;;;5022999;28;20177;-78
2022/06/02 05:34:08;;;;;;;;;;;10.10;99.90;;;;;;4999374;28;19941;-78
2022/06/02 05:36:57;;;;;;;;;;;10.40;99.90;;;;;;5003631;28;20595;-78
2022/06/02 05:39:43;;;;;;;;;;;10.50;99.90;;;;;;5004300;28;19929;-79
2022/06/02 05:42:18;;;;;;;;;;;10.60;99.90;;;;;;5004575;28;19937;-78
2022/06/02 05:45:03;;;;;;;;;;;10.70;99.90;;;;;;4985604;28;19932;-78
2022/06/02 05:47:41;;;;;;;;;;;10.80;99.90;;;;;;4984584;28;20418;-78
2022/06/02 05:50:08;;;;;;;;;;;10.90;99.90;;;;;;5001757;28;19926;-78
2022/06/02 05:52:56;;;;;;;;;;;11.00;99.90;;;;;;5004520;28;20089;-80
2022/06/02 05:55:39;;;;;;;;;;;11.10;99.90;;;;;;4986818;28;20384;-78
2022/06/02 05:58:27;;;;;;;;;;;11.20;99.90;;;;;;4986334;28;19925;-78
2022/06/02 06:01:10;;;;;;;;;;;11.30;99.90;;;;;;5004537;28;19929;-78
2022/06/02 06:03:57;;;;;;;;;;;11.40;99.90;;;;;;5003632;28;19926;-78
2022/06/02 06:06:36;;;;;;;;;;;11.50;99.90;;;;;;4994052;28;19936;-78
2022/06/02 06:09:14;;;;;;;;;;;11.60;99.90;;;;;;5004923;28;19934;-78
2022/06/02 06:11:49;;;;;;;;;;;11.70;99.90;;;;;;5003030;28;19930;-77
2022/06/02 06:14:33;;;;;;;;;;;11.80;99.90;;;;;;4986566;28;19933;-78
2022/06/02 06:17:10;;;;;;;;;;;11.90;99.90;;;;;;5004503;28;19970;-78
2022/06/02 06:19:52;;;;;;;;;;;12.00;99.90;;;;;;5003787;28;19934;-78
2022/06/02 06:22:20;;;;;;;;;;;12.00;99.90;;;;;;5004154;28;19930;-78
2022/06/02 06:25:07;;;;;;;;;;;12.10;99.90;;;;;;5001294;28;19937;-78
2022/06/02 06:27:56;;;;;;;;;;;12.20;99.90;;;;;;5000421;28;19940;-79
2022/06/02 06:30:37;;;;;;;;;;;12.30;99.90;;;;;;5002549;28;19941;-78
2022/06/02 06:33:30;;;;;;;;;;;12.40;99.90;;;;;;4971554;28;19934;-78
2022/06/02 06:35:57;;;;;;;;;;;12.90;99.90;;;;;;4966574;28;19937;-78
2022/06/02 06:38:29;;;;;;;;;;;12.50;99.90;;;;;;4966939;28;19930;-78
2022/06/02 06:40:56;;;;;;;;;;;12.60;99.90;;;;;;4984361;28;19926;-78
2022/06/02 06:43:47;;;;;;;;;;;12.70;99.90;;;;;;4985088;28;20138;-79
2022/06/02 06:46:14;;;;;;;;;;;12.80;99.90;;;;;;4986568;28;19936;-77
2022/06/02 06:48:49;;;;;;;;;;;12.90;99.90;;;;;;5003558;28;19932;-78
2022/06/02 06:51:33;;;;;;;;;;;13.00;99.90;;;;;;5003932;28;20002;-78
2022/06/02 06:54:09;;;;;;;;;;;13.10;99.90;;;;;;5002550;28;20288;-77
2022/06/02 06:56:45;;;;;;;;;;;13.20;99.90;;;;;;4987455;28;19929;-78
2022/06/02 06:59:13;;;;;;;;;;;12.40;99.90;;;;;;5010003;28;19914;-79
2022/06/02 07:01:49;;;;;;;;;;;13.30;99.90;;;;;;5003524;28;19933;-79
2022/06/02 07:04:37;;;;;;;;;;;13.40;99.90;;;;;;4985486;28;19926;-78
2022/06/02 07:07:19;;;;;;;;;;;13.50;99.90;;;;;;5002309;28;19941;-78
2022/06/02 07:09:54;;;;;;;;;;;13.70;99.90;;;;;;5003052;28;19926;-78
2022/06/02 07:12:53;;;;;;;;;;;13.80;99.90;;;;;;4986328;28;19930;-78
2022/06/02 07:15:27;;;;;;;;;;;13.90;99.90;;;;;;4980320;28;19965;-78
2022/06/02 07:18:15;;;;;;;;;;;14.00;99.90;;;;;;5004304;28;19926;-79
2022/06/02 07:20:54;;;;;;;;;;;14.00;99.90;;;;;;5001936;28;19933;-78
2022/06/02 07:23:42;;;;;;;;;;;14.20;99.90;;;;;;5002072;28;19933;-78
2022/06/02 07:26:28;;;;;;;;;;;14.30;99.90;;;;;;5000538;28;20074;-78
2022/06/02 07:29:28;;;;;;;;;;;14.40;99.90;;;;;;4981410;28;19937;-78
2022/06/02 07:32:02;;;;;;;;;;;14.70;99.90;;;;;;4897957;28;19937;-78
2022/06/02 07:34:32;;;;;;;;;;;14.50;99.90;;;;;;4998932;28;19941;-78
2022/06/02 07:37:08;;;;;;;;;;;14.60;99.90;;;;;;4986290;28;19933;-78
2022/06/02 07:39:42;;;;;;;;;;;14.70;99.90;;;;;;5001116;28;19940;-79
2022/06/02 07:42:12;;;;;;;;;;;14.70;99.90;;;;;;4989934;28;19930;-79
2022/06/02 07:44:43;;;;;;;;;;;14.80;99.90;;;;;;4993416;28;19930;-78
2022/06/02 07:47:23;;;;;;;;;;;14.90;99.90;;;;;;4994422;28;19934;-79
2022/06/02 07:49:51;;;;;;;;;;;14.90;99.90;;;;;;4985581;28;19930;-78
2022/06/02 07:52:20;;;;;;;;;;;15.10;99.90;;;;;;5004867;28;20303;-78
2022/06/02 07:55:01;;;;;;;;;;;14.00;99.90;;;;;;4987622;28;19925;-79
2022/06/02 07:57:39;;;;;;;;;;;15.20;99.90;;;;;;4983131;28;19938;-78
2022/06/02 08:00:18;;;;;;;;;;;15.20;99.90;;;;;;4973201;28;19937;-78
2022/06/02 08:02:48;;;;;;;;;;;15.20;99.90;;;;;;5004416;28;19929;-79
2022/06/02 08:05:53;;;;;;;;;;;15.30;99.90;;;;;;4987265;28;19929;-79
2022/06/02 08:08:32;;;;;;;;;;;15.30;99.30;;;;;;4991162;28;19930;-78
2022/06/02 08:11:23;;;;;;;;;;;15.40;99.00;;;;;;5004031;28;20060;-78
2022/06/02 08:13:57;;;;;;;;;;;15.40;99.10;;;;;;5004907;28;19926;-78
2022/06/02 08:16:27;;;;;;;;;;;15.50;99.60;;;;;;5005152;28;19967;-79
2022/06/02 08:19:08;;;;;;;;;;;15.60;99.90;;;;;;4984954;28;19945;-78
2022/06/02 08:21:44;;;;;;;;;;;15.70;99.80;;;;;;5006095;28;20271;-78
2022/06/02 08:24:33;;;;;;;;;;;15.70;99.80;;;;;;4990063;28;19936;-78
2022/06/02 08:27:04;;;;;;;;;;;15.90;99.80;;;;;;5003499;28;19929;-79
2022/06/02 08:29:55;;;;;;;;;;;16.10;99.90;;;;;;4984789;28;19939;-79
2022/06/02 08:32:30;;;;;;;;;;;16.20;99.70;;;;;;4999084;28;19930;-78
2022/06/02 08:35:08;;;;;;;;;;;16.30;99.70;;;;;;4986834;28;19929;-81
2022/06/02 08:38:07;;;;;;;;;;;16.30;99.50;;;;;;5002952;28;19984;-82
2022/06/02 08:40:54;;;;;;;;;;;16.40;99.50;;;;;;5001818;28;19925;-79
2022/06/02 08:43:28;;;;;;;;;;;16.50;99.30;;;;;;4999333;28;19935;-80
2022/06/02 08:46:26;;;;;;;;;;;16.50;98.90;;;;;;4956624;28;19934;-79
2022/06/02 08:49:03;;;;;;;;;;;16.60;98.70;;;;;;4993072;28;19926;-78
2022/06/02 08:51:34;;;;;;;;;;;16.60;98.50;;;;;;4961160;28;19934;-82
2022/06/02 08:54:33;;;;;;;;;;;17.00;98.60;;;;;;4978511;28;19930;-78
2022/06/02 08:57:03;;;;;;;;;;;16.20;98.50;;;;;;4981445;28;19941;-81
2022/06/02 08:59:52;;;;;;;;;;;16.90;98.70;;;;;;4980157;28;19930;-78
2022/06/02 09:02:21;;;;;;;;;;;16.90;98.10;;;;;;4959757;28;19926;-81
2022/06/02 09:05:20;;;;;;;;;;;17.20;98.10;;;;;;4978236;28;19926;-79
2022/06/02 09:08:08;;;;;;;;;;;17.00;98.30;;;;;;4979425;28;19930;-79
2022/06/02 09:10:40;;;;;;;;;;;17.10;98.00;;;;;;4981115;28;19934;-78
2022/06/02 09:13:28;;;;;;;;;;;17.10;98.10;;;;;;4995773;28;19933;-78
2022/06/02 09:16:20;;;;;;;;;;;17.40;97.80;;;;;;4980155;28;19933;-79
2022/06/02 09:18:51;;;;;;;;;;;17.40;97.70;;;;;;4636382;28;10000263;-78
2022/06/02 09:21:50;;;;;;;;;;;17.40;97.70;;;;;;4981629;28;19941;-79
2022/06/02 09:24:38;;;;;;;;;;;17.50;97.60;;;;;;4982869;28;19945;-79
2022/06/02 09:27:31;;;;;;;;;;;17.70;97.50;;;;;;4982218;28;19930;-79
2022/06/02 09:30:02;;;;;;;;;;;17.90;97.40;;;;;;4981504;28;20116;-79
2022/06/02 09:32:48;;;;;;;;;;;17.80;96.80;;;;;;4981147;28;19940;-82
2022/06/02 09:35:20;;;;;;;;;;;17.90;96.30;;;;;;4964446;28;19934;-79
2022/06/02 09:37:52;;;;;;;;;;;17.80;96.90;;;;;;4995206;28;19934;-78
2022/06/02 09:40:41;;;;;;;;;;;18.10;97.00;;;;;;4980943;28;19930;-78
2022/06/02 09:43:12;;;;;;;;;;;18.10;95.60;;;;;;4943402;29;20428;-79
2022/06/02 09:49:11;;;;;;;;;;;18.40;95.50;;;;;;4995866;28;19930;-82
2022/06/02 09:51:46;;;;;;;;;;;18.50;95.10;;;;;;4995019;28;19934;-80
2022/06/02 09:54:24;;;;;;;;;;;18.70;95.10;;;;;;4978214;28;19935;-80
2022/06/02 09:56:55;;;;;;;;;;;18.80;94.90;;;;;;4979791;28;19937;-78
2022/06/02 09:59:23;;;;;;;;;;;18.90;94.70;;;;;;4994951;28;20134;-78
2022/06/02 10:02:00;;;;;;;;;;;19.00;94.20;;;;;;4980243;28;19941;-79
2022/06/02 10:04:47;;;;;;;;;;;19.10;93.90;;;;;;4994004;28;19945;-78
2022/06/02 10:07:26;;;;;;;;;;;19.20;94.00;;;;;;4978466;28;19934;-81
2022/06/02 10:10:13;;;;;;;;;;;19.30;93.90;;;;;;4963256;28;20452;-77
2022/06/02 10:13:00;;;;;;;;;;;19.40;94.20;;;;;;4979658;28;19933;-78
2022/06/02 10:15:43;;;;;;;;;;;19.40;93.40;;;;;;5005820;23;19932;-89
2022/06/02 10:18:25;;;;;;;;;;;19.30;93.60;;;;;;5029185;28;19932;-92
2022/06/02 10:21:11;;;;;;;;;;;19.20;94.00;;;;;;5007751;28;19926;-91
2022/06/02 10:24:04;;;;;;;;;;;17.90;93.90;;;;;;5007640;28;19936;-91
2022/06/02 10:26:35;;;;;;;;;;;17.40;93.70;;;;;;4986458;28;19926;-90
2022/06/02 10:29:24;;;;;;;;;;;18.90;93.70;;;;;;4991081;28;19925;-93
2022/06/02 10:32:22;;;;;;;;;;;18.80;93.80;;;;;;4990832;28;19944;-91
2022/06/02 10:35:34;;;;;;;;;;;18.50;93.80;;;;;;5000848;28;19938;-92
2022/06/02 10:39:06;;;;;;;;;;;18.70;93.40;;;;;;4998700;28;20315;-92
2022/06/02 10:41:53;;;;;;;;;;;18.70;93.50;;;;;;4982433;28;19932;-92
2022/06/02 10:44:47;;;;;;;;;;;18.70;94.10;;;;;;5018210;28;19933;-92
2022/06/02 10:47:23;;;;;;;;;;;18.90;93.50;;;;;;4999443;28;19934;-92
2022/06/02 10:50:24;;;;;;;;;;;19.10;93.10;;;;;;4998894;28;19926;-89
2022/06/02 10:53:14;;;;;;;;;;;19.30;93.10;;;;;;4996617;28;19926;-92
2022/06/02 10:56:03;;;;;;;;;;;19.60;93.00;;;;;;5003488;28;19926;-92
2022/06/02 10:58:55;;;;;;;;;;;19.60;92.60;;;;;;4997263;28;19932;-92
2022/06/02 11:01:46;;;;;;;;;;;19.60;92.20;;;;;;4988940;28;19925;-92
2022/06/02 11:04:48;;;;;;;;;;;19.50;92.00;;;;;;5012462;23;19914;-85
2022/06/02 11:07:57;;;;;;;;;;;19.50;91.70;;;;;;4979997;28;19934;-83
2022/06/02 11:11:05;;;;;;;;;;;19.40;91.60;;;;;;4998147;28;19937;-84
2022/06/02 11:13:34;;;;;;;;;;;19.40;91.90;;;;;;4997879;28;19930;-82
2022/06/02 11:16:26;;;;;;;;;;;19.60;91.40;;;;;;4998251;28;19925;-82
2022/06/02 11:19:08;;;;;;;;;;;19.80;91.30;;;;;;5010064;28;19937;-83
2022/06/02 11:21:55;;;;;;;;;;;20.90;91.10;;;;;;4651912;28;10000330;-82
2022/06/02 11:24:39;;;;;;;;;;;20.10;91.30;;;;;;4997001;28;19934;-77
2022/06/02 11:27:23;;;;;;;;;;;20.10;90.50;;;;;;4993469;28;19934;-78
2022/06/02 11:29:55;;;;;;;;;;;20.20;90.60;;;;;;5000152;28;19945;-77
2022/06/02 11:32:32;;;;;;;;;;;20.40;90.00;;;;;;4998314;28;19926;-77
2022/06/02 11:35:06;;;;;;;;;;;20.60;89.40;;;;;;4999767;28;20005;-75
2022/06/02 11:37:47;;;;;;;;;;;20.70;88.80;;;;;;5004551;28;19930;-78
2022/06/02 11:40:56;;;;;;;;;;;20.70;88.60;;;;;;4999235;28;20437;-77
2022/06/02 11:43:33;;;;;;;;;;;20.80;88.00;;;;;;5001270;28;19926;-77
2022/06/02 11:46:09;;;;;;;;;;;20.90;88.90;;;;;;5013664;28;19934;-78
2022/06/02 11:48:48;;;;;;;;;;;21.00;88.50;;;;;;4999632;28;19944;-78
2022/06/02 11:51:27;;;;;;;;;;;20.80;88.00;;;;;;5000303;28;19934;-78
2022/06/02 11:54:24;;;;;;;;;;;20.70;88.30;;;;;;4999971;28;20146;-77
2022/06/02 11:56:52;;;;;;;;;;;20.80;89.50;;;;;;5001125;28;19926;-78
2022/06/02 11:59:32;;;;;;;;;;;21.00;88.50;;;;;;4996839;28;20493;-77
2022/06/02 12:02:24;;;;;;;;;;;21.10;88.20;;;;;;5003715;28;20371;-78
2022/06/02 12:05:11;;;;;;;;;;;21.30;88.30;;;;;;5006608;28;19948;-79
2022/06/02 12:07:39;;;;;;;;;;;21.20;86.70;;;;;;5022737;28;19925;-78
2022/06/02 12:10:25;;;;;;;;;;;21.10;86.70;;;;;;5021494;28;19933;-77
2022/06/02 12:12:53;;;;;;;;;;;21.10;86.20;;;;;;5021502;28;19933;-79
2022/06/02 12:15:36;;;;;;;;;;;20.90;87.90;;;;;;5023915;28;19944;-78
2022/06/02 12:18:19;;;;;;;;;;;20.80;87.80;;;;;;5022466;28;20545;-78
2022/06/02 12:21:08;;;;;;;;;;;20.80;87.90;;;;;;5024759;28;20041;-77
2022/06/02 12:23:56;;;;;;;;;;;20.90;88.70;;;;;;5013617;28;19944;-79
2022/06/02 12:26:33;;;;;;;;;;;21.00;88.00;;;;;;5023705;28;19929;-77
2022/06/02 12:29:02;;;;;;;;;;;21.10;88.00;;;;;;5022177;28;19936;-78
2022/06/02 12:31:34;;;;;;;;;;;21.20;86.10;;;;;;5006036;28;19935;-81
2022/06/02 12:34:05;;;;;;;;;;;21.30;86.10;;;;;;5024738;28;19933;-79
2022/06/02 12:36:59;;;;;;;;;;;21.50;86.00;;;;;;5021462;28;19933;-77
2022/06/02 12:39:44;;;;;;;;;;;21.50;85.30;;;;;;5025066;28;19929;-77
2022/06/02 12:42:21;;;;;;;;;;;21.50;86.00;;;;;;5019204;28;19929;-83
2022/06/02 12:45:22;;;;;;;;;;;21.60;85.90;;;;;;5020427;28;19941;-79
2022/06/02 12:48:03;;;;;;;;;;;21.50;85.40;;;;;;4968006;28;19930;-80
2022/06/02 12:50:40;;;;;;;;;;;21.50;85.30;;;;;;5019203;28;19929;-78
2022/06/02 12:53:30;;;;;;;;;;;21.50;85.60;;;;;;5002900;28;20301;-78
2022/06/02 12:56:17;;;;;;;;;;;21.70;86.60;;;;;;5037663;28;19934;-78
2022/06/02 12:59:13;;;;;;;;;;;21.70;83.80;;;;;;5036214;28;19925;-79
2022/06/02 13:02:03;;;;;;;;;;;21.50;85.00;;;;;;5006928;28;19929;-78
2022/06/02 13:04:52;;;;;;;;;;;21.40;83.90;;;;;;5037936;28;19926;-79
2022/06/02 13:07:45;;;;;;;;;;;21.30;84.80;;;;;;5035299;28;19930;-78
2022/06/02 13:10:21;;;;;;;;;;;21.20;84.90;;;;;;5003913;28;19933;-78
2022/06/02 13:12:59;;;;;;;;;;;21.20;85.20;;;;;;5019069;28;19933;-78
2022/06/02 13:15:29;;;;;;;;;;;21.00;84.40;;;;;;5020695;28;20024;-78
2022/06/02 13:18:22;;;;;;;;;;;21.20;84.30;;;;;;5018964;28;19926;-79
2022/06/02 13:21:09;;;;;;;;;;;20.70;84.60;;;;;;5018900;28;19930;-79
2022/06/02 13:23:39;;;;;;;;;;;20.80;84.60;;;;;;5020928;28;20267;-79
2022/06/02 13:26:23;;;;;;;;;;;21.00;83.20;;;;;;5019504;28;19930;-78
2022/06/02 13:29:03;;;;;;;;;;;21.30;83.60;;;;;;5038215;28;19929;-78
2022/06/02 13:31:51;;;;;;;;;;;21.50;83.00;;;;;;5041691;28;20279;-79
2022/06/02 13:34:31;;;;;;;;;;;21.50;82.90;;;;;;5023884;28;19929;-78
2022/06/02 13:37:11;;;;;;;;;;;21.70;82.40;;;;;;5011641;28;19936;-78
2022/06/02 13:39:43;;;;;;;;;;;21.90;82.00;;;;;;5022388;28;19932;-78
2022/06/02 13:42:21;;;;;;;;;;;22.30;81.00;;;;;;5014485;28;19929;-78
2022/06/02 13:45:07;;;;;;;;;;;22.70;79.50;;;;;;5016246;28;19948;-78
2022/06/02 13:47:39;;;;;;;;;;;23.10;78.50;;;;;;5018978;28;19940;-78
2022/06/02 13:50:25;;;;;;;;;;;23.30;78.00;;;;;;5018193;28;19932;-78
2022/06/02 13:53:12;;;;;;;;;;;23.30;78.00;;;;;;5017341;28;19933;-78
2022/06/02 13:58:44;;;;;;;;;;;23.20;77.10;;;;;;5000028;28;19956;-78
2022/06/02 14:01:19;;;;;;;;;;;23.40;75.80;;;;;;5017054;28;19925;-80
2022/06/02 14:04:06;;;;;;;;;;;23.50;76.30;;;;;;5018496;28;19929;-79
2022/06/02 14:06:41;;;;;;;;;;;23.90;77.00;;;;;;5032407;28;19934;-77
2022/06/02 14:09:31;;;;;;;;;;;24.30;75.50;;;;;;5017631;28;19936;-79
2022/06/02 14:12:02;;;;;;;;;;;24.80;74.50;;;;;;5017437;28;20399;-77
2022/06/02 14:14:48;;;;;;;;;;;25.20;75.60;;;;;;4983720;28;19941;-78
2022/06/02 14:17:27;;;;;;;;;;;25.40;73.40;;;;;;5019236;28;19930;-79
2022/06/02 14:20:16;;;;;;;;;;;25.20;71.90;;;;;;5016407;28;19946;-77
2022/06/02 14:22:59;;;;;;;;;;;25.20;72.50;;;;;;4997339;28;19930;-77
2022/06/02 14:25:39;;;;;;;;;;;25.40;72.60;;;;;;5015218;28;20354;-79
2022/06/02 14:28:26;;;;;;;;;;;25.50;71.70;;;;;;5017146;28;19926;-78
2022/06/02 14:31:17;;;;;;;;;;;25.70;71.10;;;;;;4999996;28;19940;-78
2022/06/02 14:34:34;;;;;;;;;;;25.90;70.40;;;;;;5019020;28;19929;-78
2022/06/02 14:37:23;;;;;;;;;;;25.90;69.90;;;;;;5001038;28;19944;-79
2022/06/02 14:39:50;;;;;;;;;;;25.70;70.70;;;;;;5020176;28;19933;-81
2022/06/02 14:45:47;;;;;;;;;;;25.80;70.90;;;;;;5020038;28;19933;-77
2022/06/02 14:48:44;;;;;;;;;;;25.40;69.00;;;;;;5018109;28;19937;-81
2022/06/02 14:51:15;;;;;;;;;;;25.10;70.60;;;;;;5019096;28;19925;-80
2022/06/02 14:54:18;;;;;;;;;;;24.90;71.10;;;;;;5019375;28;19933;-78
2022/06/02 14:57:06;;;;;;;;;;;25.10;71.10;;;;;;5019742;28;19929;-77
2022/06/02 14:59:59;;;;;;;;;;;25.70;69.60;;;;;;5017654;28;19940;-79
2022/06/02 15:02:48;;;;;;;;;;;26.20;68.90;;;;;;4985442;28;19925;-78
2022/06/02 15:05:58;;;;;;;;;;;26.30;68.40;;;;;;5018218;28;19936;-78
2022/06/02 15:08:38;;;;;;;;;;;26.20;68.10;;;;;;5003109;28;19961;-79
2022/06/02 15:11:25;;;;;;;;;;;26.40;67.90;;;;;;5018363;28;19941;-77
2022/06/02 15:14:12;;;;;;;;;;;26.50;68.00;;;;;;5120436;22;19931;-78
2022/06/02 15:16:40;;;;;;;;;;;26.70;67.20;;;;;;5002259;28;19940;-77
2022/06/02 15:19:07;;;;;;;;;;;27.10;67.70;;;;;;5018321;28;19936;-76
2022/06/02 15:21:56;;;;;;;;;;;27.20;66.70;;;;;;5007416;28;19925;-77
2022/06/02 15:24:23;;;;;;;;;;;27.40;67.40;;;;;;5019208;28;20301;-78
2022/06/02 15:27:10;;;;;;;;;;;27.50;65.50;;;;;;5017778;28;19933;-76
2022/06/02 15:29:57;;;;;;;;;;;27.70;65.50;;;;;;5034872;28;19937;-78
2022/06/02 15:32:40;;;;;;;;;;;28.00;64.90;;;;;;5035303;28;19931;-78
2022/06/02 15:35:28;;;;;;;;;;;28.10;65.00;;;;;;5034108;28;19952;-78
2022/06/02 15:38:19;;;;;;;;;;;28.30;65.40;;;;;;5018312;28;19936;-78
2022/06/02 15:41:10;;;;;;;;;;;28.50;64.50;;;;;;5016903;28;20155;-78
2022/06/02 15:44:05;;;;;;;;;;;28.90;64.30;;;;;;5001973;28;19929;-77
2022/06/02 15:46:42;;;;;;;;;;;29.10;61.60;;;;;;5032995;28;19933;-77
2022/06/02 15:49:36;;;;;;;;;;;29.10;62.50;;;;;;5019677;28;19940;-78
2022/06/02 15:52:25;;;;;;;;;;;28.90;62.80;;;;;;5019141;28;19925;-78
2022/06/02 15:54:53;;;;;;;;;;;29.00;62.70;;;;;;5015688;28;19932;-76